Jamestown, Canada
Current Conditions -  °F | °C
As of 8:00 AM on Friday 28 Nov 2014 (Local Time) from CYQX Reporting Station
Light Snow Light Snow  
Wind Chill: 17°   Ceiling: 500
Heat Index: 28°   Visibility: 2mi
Dew Point: 28°   Wind: 15mph
Humidity: 100%   Direction: 330°NNW
Pressure: 29.72"   Gusts: 24mph
Location:  48.43°N, 53.8°W
Report Text: CYQX 281100Z 33013G21KT 2SM -FZDZ -SG BR BKN005 OVC010 M02/M02 A2972 RMK FG3SF4SC1 SLP071
Loading
Personal Weather Stations






























Interactive Weather Map New forecast layout! Learn more

10-Day Weather Forecast

Advertisements
Track Severe Weather on mobile